createdAt,value
2019-02-23T00:01:54.295Z,68.26
2019-02-23T00:04:25.541Z,68.46
2019-02-23T00:06:57.214Z,68.46
2019-02-23T00:09:29.366Z,68.46
2019-02-23T00:12:01.443Z,68.56
2019-02-23T00:14:34.217Z,68.89
2019-02-23T00:17:09.559Z,68.91
2019-02-23T00:19:41.518Z,69.12
2019-02-23T00:22:13.196Z,69.15
2019-02-23T00:24:44.633Z,69.25
2019-02-23T00:27:16.279Z,69.38
2019-02-23T00:29:47.944Z,69.42
2019-02-23T00:32:19.597Z,68.88
2019-02-23T00:34:51.553Z,69.63
2019-02-23T00:37:23.115Z,69.87
2019-02-23T00:39:54.883Z,69.42
2019-02-23T00:42:26.507Z,69.48
2019-02-23T00:44:58.060Z,69.91
2019-02-23T00:47:29.826Z,70.12
2019-02-23T00:50:01.384Z,70.14
2019-02-23T00:52:33.558Z,70.15
2019-02-23T00:55:06.261Z,69.96
2019-02-23T00:57:37.678Z,70.08
2019-02-23T01:00:11.326Z,70.46
2019-02-23T01:02:43.236Z,70.76
2019-02-23T01:05:15.098Z,70.96
2019-02-23T01:07:46.756Z,70.83
2019-02-23T01:10:19.769Z,71.27
2019-02-23T01:12:51.393Z,71.43
2019-02-23T01:15:22.942Z,71.02
2019-02-23T01:17:56.651Z,71.26
2019-02-23T01:20:28.019Z,71.20
2019-02-23T01:22:59.648Z,71.51
2019-02-23T01:25:31.019Z,71.62
2019-02-23T01:28:02.459Z,71.73
2019-02-23T01:30:34.322Z,71.95
2019-02-23T01:33:06.681Z,71.78
2019-02-23T01:35:40.285Z,72.01
2019-02-23T01:38:11.824Z,72.31
2019-02-23T01:40:44.626Z,72.36
2019-02-23T01:43:17.086Z,72.36
2019-02-23T01:45:48.441Z,72.48
2019-02-23T01:48:19.988Z,72.65
2019-02-23T01:50:53.387Z,72.92
2019-02-23T01:53:25.448Z,72.74
2019-02-23T01:55:56.806Z,72.49
2019-02-23T01:58:28.354Z,72.79
2019-02-23T02:01:00.207Z,72.97
2019-02-23T02:03:32.032Z,72.67
2019-02-23T02:06:03.521Z,72.83
2019-02-23T02:08:35.313Z,72.81
2019-02-23T02:11:06.834Z,73.05
2019-02-23T02:13:38.890Z,72.83
2019-02-23T02:16:10.448Z,72.92
2019-02-23T02:18:42.213Z,72.72
2019-02-23T02:21:13.543Z,72.92
2019-02-23T02:23:45.417Z,73.03
2019-02-23T02:26:16.970Z,73.01
2019-02-23T02:28:48.722Z,72.86
2019-02-23T02:31:20.293Z,72.62
2019-02-23T02:34:09.019Z,73.10
2019-02-23T02:36:40.385Z,73.08
2019-02-23T02:39:13.180Z,72.63
2019-02-23T02:41:44.615Z,73.03
2019-02-23T02:44:16.465Z,73.46
2019-02-23T02:46:47.917Z,73.51
2019-02-23T02:49:19.688Z,73.25
2019-02-23T02:51:51.435Z,73.47
2019-02-23T02:54:24.114Z,73.62
2019-02-23T02:56:55.673Z,73.50
2019-02-23T02:59:27.546Z,73.27
2019-02-23T03:01:59.101Z,73.60
2019-02-23T03:04:31.694Z,73.59
2019-02-23T03:07:03.198Z,73.91
2019-02-23T03:09:34.643Z,74.06
2019-02-23T03:12:05.897Z,74.08
2019-02-23T03:14:37.351Z,73.90
2019-02-23T03:17:08.591Z,74.32
2019-02-23T03:19:40.142Z,74.37
2019-02-23T03:22:11.383Z,74.29
2019-02-23T03:24:42.935Z,74.38
2019-02-23T03:27:14.293Z,74.07
2019-02-23T03:29:45.834Z,74.34
2019-02-23T03:32:17.187Z,74.40
2019-02-23T03:34:49.867Z,73.99
2019-02-23T03:37:21.210Z,74.37
2019-02-23T03:39:52.559Z,74.37
2019-02-23T03:42:24.110Z,74.57
2019-02-23T03:44:55.570Z,74.48
2019-02-23T03:47:27.118Z,74.15
2019-02-23T03:49:58.459Z,74.39
2019-02-23T03:52:29.702Z,74.31
2019-02-23T03:55:01.361Z,74.29
2019-02-23T03:57:32.719Z,74.23
2019-02-23T04:00:04.061Z,74.33
2019-02-23T04:02:37.082Z,74.31
2019-02-23T04:05:08.394Z,74.34
2019-02-23T04:07:39.736Z,73.06
2019-02-23T04:10:10.983Z,73.29
2019-02-23T04:12:42.437Z,73.99
2019-02-23T04:15:13.581Z,74.15
2019-02-23T04:17:45.028Z,73.57
2019-02-23T04:20:16.273Z,74.32
2019-02-23T04:22:47.718Z,73.47
2019-02-23T04:25:18.964Z,73.98
2019-02-23T04:27:50.420Z,74.37
2019-02-23T04:30:22.896Z,74.05
2019-02-23T04:32:54.266Z,73.89
2019-02-23T04:35:25.693Z,74.08
2019-02-23T04:37:57.037Z,73.92
2019-02-23T04:40:28.185Z,73.67
2019-02-23T04:42:59.641Z,73.78
2019-02-23T04:45:30.774Z,73.99
2019-02-23T04:48:03.457Z,74.13
2019-02-23T04:50:34.911Z,73.69
2019-02-23T04:53:06.464Z,73.97
2019-02-23T04:55:37.600Z,73.80
2019-02-23T04:58:08.947Z,73.06
2019-02-23T05:00:40.617Z,73.01
2019-02-23T05:03:12.305Z,72.84
2019-02-23T05:05:43.500Z,71.64
2019-02-23T05:08:14.954Z,71.87
2019-02-23T05:10:46.608Z,71.77
2019-02-23T05:13:18.051Z,71.66
2019-02-23T05:15:49.612Z,71.95
2019-02-23T05:18:21.015Z,72.00
2019-02-23T05:20:52.506Z,71.92
2019-02-23T05:23:23.853Z,72.28
2019-02-23T05:25:54.995Z,72.22
2019-02-23T05:28:26.462Z,72.11
2019-02-23T05:30:58.005Z,72.04
2019-02-23T05:33:29.248Z,72.14
2019-02-23T05:36:10.333Z,72.48
2019-02-23T05:38:43.005Z,72.40
2019-02-23T05:41:14.557Z,71.98
2019-02-23T05:43:45.802Z,72.10
2019-02-23T05:46:17.311Z,71.94
2019-02-23T05:48:50.033Z,71.69
2019-02-23T05:51:21.385Z,70.26
2019-02-23T05:53:53.338Z,70.74
2019-02-23T05:56:24.598Z,71.23
2019-02-23T05:58:56.116Z,71.28
2019-02-23T06:01:27.651Z,70.82
2019-02-23T06:03:59.045Z,69.85
2019-02-23T06:06:30.691Z,69.83
2019-02-23T06:09:02.251Z,68.57
2019-02-23T06:11:34.770Z,68.59
2019-02-23T06:14:06.726Z,68.36
2019-02-23T06:16:38.034Z,67.32
2019-02-23T06:19:09.585Z,67.92
2019-02-23T06:21:53.054Z,68.10
2019-02-23T06:24:13.914Z,67.66
2019-02-23T06:26:45.376Z,68.14
2019-02-23T06:29:16.719Z,68.76
2019-02-23T06:31:48.268Z,68.62
2019-02-23T06:34:19.822Z,68.46
2019-02-23T06:36:51.367Z,68.89
2019-02-23T06:39:22.721Z,68.24
2019-02-23T06:41:54.070Z,68.09
2019-02-23T06:44:25.827Z,66.92
2019-02-23T06:46:58.204Z,67.87
2019-02-23T06:49:29.757Z,67.83
2019-02-23T06:52:04.290Z,67.75
2019-02-23T06:54:34.088Z,68.14
2019-02-23T06:57:05.645Z,66.79
2019-02-23T06:59:37.976Z,67.02
2019-02-23T07:02:09.795Z,67.48
2019-02-23T07:04:42.133Z,66.09
2019-02-23T07:07:13.611Z,65.34
2019-02-23T07:09:45.162Z,66.01
2019-02-23T07:12:18.122Z,66.18
2019-02-23T07:14:49.780Z,66.46
2019-02-23T07:17:21.254Z,66.22
2019-02-23T07:19:52.989Z,65.49
2019-02-23T07:22:24.642Z,65.70
2019-02-23T07:24:55.891Z,65.85
2019-02-23T07:27:27.440Z,65.55
2019-02-23T07:29:58.791Z,65.29
2019-02-23T07:32:30.446Z,66.01
2019-02-23T07:35:01.692Z,65.34
2019-02-23T07:37:33.041Z,64.56
2019-02-23T07:40:07.147Z,63.82
2019-02-23T07:42:38.710Z,64.59
2019-02-23T07:45:10.857Z,63.52
2019-02-23T07:47:43.237Z,63.99
2019-02-23T07:50:15.669Z,63.92
2019-02-23T07:52:47.269Z,63.63
2019-02-23T07:55:18.723Z,61.66
2019-02-23T07:57:50.167Z,63.50
2019-02-23T08:00:21.720Z,63.36
2019-02-23T08:02:53.447Z,61.23
2019-02-23T08:05:24.947Z,62.40
2019-02-23T08:07:56.592Z,62.21
2019-02-23T08:10:28.031Z,61.79
2019-02-23T08:12:59.502Z,61.15
2019-02-23T08:15:30.618Z,61.01
2019-02-23T08:18:02.075Z,60.82
2019-02-23T08:20:33.421Z,61.33
2019-02-23T08:23:06.002Z,62.50
2019-02-23T08:25:37.143Z,62.81
2019-02-23T08:28:08.815Z,62.70
2019-02-23T08:30:40.353Z,61.67
2019-02-23T08:33:11.591Z,61.43
2019-02-23T08:35:42.944Z,60.36
2019-02-23T08:38:14.704Z,59.55
2019-02-23T08:40:46.060Z,60.08
2019-02-23T08:43:17.394Z,60.68
2019-02-23T08:45:48.942Z,60.00
2019-02-23T08:48:20.506Z,60.41
2019-02-23T08:50:52.056Z,58.85
2019-02-23T08:53:23.853Z,61.07
2019-02-23T08:55:55.052Z,61.48
2019-02-23T08:58:26.515Z,61.73
2019-02-23T09:00:57.020Z,61.01
2019-02-23T09:03:28.188Z,59.70
2019-02-23T09:05:59.533Z,59.04
2019-02-23T09:08:30.872Z,58.88
2019-02-23T09:11:02.452Z,58.81
2019-02-23T09:13:35.416Z,59.78
2019-02-23T09:16:06.458Z,59.55
2019-02-23T09:18:38.036Z,58.83
2019-02-23T09:21:10.596Z,58.57
2019-02-23T09:23:42.027Z,58.75
2019-02-23T09:26:13.702Z,57.58
2019-02-23T09:28:45.236Z,56.66
2019-02-23T09:31:16.376Z,56.02
2019-02-23T09:33:47.562Z,55.80
2019-02-23T09:36:19.289Z,56.90
2019-02-23T09:38:50.940Z,56.79
2019-02-23T09:41:22.491Z,56.67
2019-02-23T09:43:54.038Z,56.49
2019-02-23T09:46:25.492Z,57.17
2019-02-23T09:48:57.247Z,57.36
2019-02-23T09:51:28.488Z,56.73
2019-02-23T09:54:00.391Z,56.43
2019-02-23T09:56:31.598Z,56.69
2019-02-23T09:59:03.048Z,55.54
2019-02-23T10:01:36.096Z,56.20
2019-02-23T10:04:07.385Z,55.94
2019-02-23T10:06:38.845Z,55.26
2019-02-23T10:09:10.390Z,55.40
2019-02-23T10:11:41.836Z,55.49
2019-02-23T10:14:13.085Z,56.85
2019-02-23T10:16:44.739Z,56.29
2019-02-23T10:19:16.192Z,54.25
2019-02-23T10:21:49.793Z,54.53
2019-02-23T10:24:21.138Z,55.92
2019-02-23T10:26:52.691Z,56.16
2019-02-23T10:29:24.165Z,56.68
2019-02-23T10:31:55.898Z,56.87
2019-02-23T10:34:27.365Z,56.21
2019-02-23T10:36:58.921Z,56.35
2019-02-23T10:39:31.383Z,56.20
2019-02-23T10:42:02.827Z,56.17
2019-02-23T10:44:34.408Z,55.83
2019-02-23T10:47:09.721Z,55.47
2019-02-23T10:49:41.271Z,55.89
2019-02-23T10:52:13.231Z,56.07
2019-02-23T10:54:47.066Z,56.44
2019-02-23T10:57:17.354Z,56.16
2019-02-23T10:59:49.427Z,56.21
2019-02-23T11:02:21.260Z,56.19
2019-02-23T11:04:52.526Z,55.34
2019-02-23T11:07:24.299Z,54.61
2019-02-23T11:09:55.789Z,54.82
2019-02-23T11:12:27.290Z,55.54
2019-02-23T11:14:57.855Z,54.59
2019-02-23T11:17:28.973Z,53.92
2019-02-23T11:20:00.391Z,54.81
2019-02-23T11:22:32.271Z,54.76
2019-02-23T11:25:03.824Z,53.89
2019-02-23T11:27:35.097Z,54.71
2019-02-23T11:30:12.396Z,55.71
2019-02-23T11:32:43.596Z,55.49
2019-02-23T11:35:17.603Z,55.48
2019-02-23T11:37:49.276Z,55.28
2019-02-23T11:40:23.326Z,54.92
2019-02-23T11:42:53.710Z,54.39
2019-02-23T11:45:26.789Z,53.96
2019-02-23T11:47:58.136Z,54.34
2019-02-23T11:50:29.785Z,54.60
2019-02-23T11:53:01.802Z,55.45
2019-02-23T11:55:33.006Z,55.78
2019-02-23T11:58:04.347Z,55.50
2019-02-23T12:00:35.829Z,56.30
2019-02-23T12:03:07.555Z,55.18
2019-02-23T12:05:38.910Z,55.08
2019-02-23T12:08:10.467Z,54.72
2019-02-23T12:10:42.114Z,55.30
2019-02-23T12:13:13.364Z,55.37
2019-02-23T12:15:44.709Z,55.91
2019-02-23T12:18:16.258Z,55.86
2019-02-23T12:20:47.820Z,55.39
2019-02-23T12:23:20.278Z,55.11
2019-02-23T12:25:52.552Z,55.57
2019-02-23T12:28:24.116Z,55.93
2019-02-23T12:30:55.347Z,55.33
2019-02-23T12:33:26.801Z,55.37
2019-02-23T12:35:58.148Z,56.70
2019-02-23T12:38:29.653Z,56.93
2019-02-23T12:41:01.258Z,57.12
2019-02-23T12:43:32.807Z,57.34
2019-02-23T12:46:04.150Z,57.24
2019-02-23T12:48:35.923Z,57.20
2019-02-23T12:51:07.259Z,57.12
2019-02-23T12:53:39.867Z,56.82
2019-02-23T12:56:11.588Z,56.68
2019-02-23T12:58:43.247Z,57.46
2019-02-23T13:01:14.821Z,57.46
2019-02-23T13:03:46.770Z,57.47
2019-02-23T13:06:18.000Z,57.51
2019-02-23T13:09:21.506Z,57.04
2019-02-23T13:12:04.835Z,56.67
2019-02-23T13:14:39.562Z,56.10
2019-02-23T13:17:19.855Z,56.98
2019-02-23T13:19:57.353Z,58.13
2019-02-23T13:22:44.677Z,58.61
2019-02-23T13:25:31.238Z,58.35
2019-02-23T13:28:09.042Z,58.17
2019-02-23T13:30:55.640Z,58.63
2019-02-23T13:33:32.826Z,58.82
2019-02-23T13:36:25.579Z,58.52
2019-02-23T13:39:12.385Z,58.17
2019-02-23T13:41:53.261Z,57.94
2019-02-23T13:44:53.846Z,58.62
2019-02-23T13:47:45.717Z,58.94
2019-02-23T13:50:29.674Z,58.81
2019-02-23T13:53:32.038Z,58.90
2019-02-23T13:56:14.662Z,59.76
2019-02-23T13:58:54.218Z,59.96
2019-02-23T14:01:32.810Z,60.28
2019-02-23T14:04:07.429Z,59.94
2019-02-23T14:06:47.993Z,59.63
2019-02-23T14:09:55.624Z,59.98
2019-02-23T14:12:30.622Z,59.15
2019-02-23T14:15:17.844Z,59.82
2019-02-23T14:17:55.441Z,60.21
2019-02-23T14:20:38.791Z,60.06
2019-02-23T14:23:36.535Z,59.73
2019-02-23T14:26:11.274Z,59.86
2019-02-23T14:29:09.565Z,59.52
2019-02-23T14:31:54.514Z,59.68
2019-02-23T14:34:35.080Z,59.94
2019-02-23T14:37:15.703Z,59.05
2019-02-23T14:40:02.883Z,59.41
2019-02-23T14:42:56.936Z,59.89
2019-02-23T14:45:43.340Z,59.17
2019-02-23T14:48:35.168Z,59.71
2019-02-23T14:51:35.617Z,59.63
2019-02-23T14:54:13.306Z,59.78
2019-02-23T14:57:04.446Z,60.01
2019-02-23T14:59:54.488Z,60.05
2019-02-23T15:02:35.159Z,60.22
2019-02-23T15:05:21.654Z,59.59
2019-02-23T15:08:17.587Z,60.01
2019-02-23T15:10:58.465Z,60.12
2019-02-23T15:13:33.464Z,60.22
2019-02-23T15:16:28.324Z,59.99
2019-02-23T15:19:22.978Z,60.05
2019-02-23T15:22:25.145Z,59.98
2019-02-23T15:25:19.765Z,59.64
2019-02-23T15:28:06.142Z,60.13
2019-02-23T15:30:43.855Z,59.82
2019-02-23T15:33:24.709Z,59.73
2019-02-23T15:36:02.417Z,60.32
2019-02-23T15:38:55.282Z,60.12
2019-02-23T15:41:42.374Z,60.73
2019-02-23T15:44:36.051Z,60.86
2019-02-23T15:47:46.104Z,61.13
2019-02-23T15:50:17.716Z,60.93
2019-02-23T15:52:50.234Z,60.86
2019-02-23T15:55:26.004Z,60.50
2019-02-23T15:57:54.883Z,60.93
2019-02-23T16:00:26.444Z,60.11
2019-02-23T16:02:58.135Z,60.34
2019-02-23T16:05:29.741Z,60.55
2019-02-23T16:08:00.991Z,60.32
2019-02-23T16:10:32.536Z,60.28
2019-02-23T16:13:03.875Z,60.41
2019-02-23T16:15:35.034Z,60.58
2019-02-23T16:18:06.475Z,59.97
2019-02-23T16:20:37.932Z,59.29
2019-02-23T16:23:09.561Z,59.03
2019-02-23T16:25:41.144Z,58.73
2019-02-23T16:28:12.948Z,58.51
2019-02-23T16:30:44.236Z,58.25
2019-02-23T16:33:15.692Z,58.48
2019-02-23T16:35:47.243Z,59.22
2019-02-23T16:38:18.793Z,59.67
2019-02-23T16:40:50.447Z,59.45
2019-02-23T16:43:22.211Z,60.00
2019-02-23T16:45:54.373Z,59.89
2019-02-23T16:48:25.926Z,60.46
2019-02-23T16:50:57.382Z,60.30
2019-02-23T16:53:29.150Z,60.46
2019-02-23T16:56:00.794Z,60.80
2019-02-23T16:58:31.350Z,61.25
2019-02-23T17:01:04.289Z,60.91
2019-02-23T17:03:35.475Z,61.40
2019-02-23T17:06:07.095Z,61.33
2019-02-23T17:08:38.658Z,61.37
2019-02-23T17:11:09.999Z,61.95
2019-02-23T17:13:41.555Z,61.87
2019-02-23T17:16:12.926Z,61.02
2019-02-23T17:18:44.452Z,61.38
2019-02-23T17:21:16.004Z,61.65
2019-02-23T17:23:47.146Z,61.56
2019-02-23T17:26:18.709Z,61.36
2019-02-23T17:28:50.002Z,60.87
2019-02-23T17:31:23.249Z,60.69
2019-02-23T17:33:55.418Z,61.15
2019-02-23T17:36:26.753Z,60.47
2019-02-23T17:38:58.208Z,60.69
2019-02-23T17:41:29.553Z,61.53
2019-02-23T17:44:01.102Z,61.14
2019-02-23T17:46:32.465Z,61.34
2019-02-23T17:49:03.904Z,61.81
2019-02-23T17:51:35.253Z,61.90
2019-02-23T17:54:08.274Z,62.55
2019-02-23T17:56:39.473Z,62.51
2019-02-23T17:59:10.829Z,63.02
2019-02-23T18:01:42.492Z,63.06
2019-02-23T18:04:13.731Z,62.99
2019-02-23T18:06:45.084Z,63.50
2019-02-23T18:09:16.522Z,63.25
2019-02-23T18:11:48.208Z,63.31
2019-02-23T18:14:19.633Z,63.42
2019-02-23T18:16:51.083Z,63.87
2019-02-23T18:19:22.533Z,63.78
2019-02-23T18:21:54.594Z,63.90
2019-02-23T18:24:26.256Z,64.09
2019-02-23T18:26:57.816Z,63.97
2019-02-23T18:29:29.563Z,63.27
2019-02-23T18:32:01.429Z,62.82
2019-02-23T18:34:32.679Z,62.93
2019-02-23T18:37:04.235Z,63.31
2019-02-23T18:39:35.868Z,62.81
2019-02-23T18:42:07.319Z,62.57
2019-02-23T18:44:38.778Z,62.80
2019-02-23T18:47:11.354Z,62.62
2019-02-23T18:49:43.008Z,62.66
2019-02-23T18:52:14.756Z,62.70
2019-02-23T18:54:46.369Z,62.61
2019-02-23T18:57:20.119Z,62.14
2019-02-23T18:59:51.813Z,62.39
2019-02-23T19:02:23.791Z,62.07
2019-02-23T19:04:55.928Z,62.20
2019-02-23T19:07:27.556Z,62.44
2019-02-23T19:09:59.211Z,62.62
2019-02-23T19:12:31.089Z,62.63
2019-02-23T19:15:02.636Z,63.13
2019-02-23T19:17:34.313Z,63.15
2019-02-23T19:20:11.677Z,63.56
2019-02-23T19:22:44.772Z,64.37
2019-02-23T19:25:16.207Z,65.02
2019-02-23T19:27:49.478Z,65.15
2019-02-23T19:30:20.847Z,64.55
2019-02-23T19:32:52.434Z,64.04
2019-02-23T19:35:24.383Z,64.34
2019-02-23T19:37:55.819Z,64.03
2019-02-23T19:40:27.560Z,63.62
2019-02-23T19:42:59.028Z,64.03
2019-02-23T19:45:30.572Z,63.83
2019-02-23T19:48:02.050Z,63.57
2019-02-23T19:50:36.858Z,63.70
2019-02-23T19:53:08.561Z,63.95
2019-02-23T19:55:39.856Z,64.14
2019-02-23T19:58:12.125Z,63.71
2019-02-23T20:00:43.577Z,64.07
2019-02-23T20:03:15.635Z,64.26
2019-02-23T20:05:47.095Z,64.00
2019-02-23T20:08:18.537Z,63.77
2019-02-23T20:10:50.191Z,63.98
2019-02-23T20:13:21.550Z,63.92
2019-02-23T20:15:53.094Z,63.91
2019-02-23T20:18:24.487Z,63.51
2019-02-23T20:20:57.735Z,63.48
2019-02-23T20:23:29.182Z,63.45
2019-02-23T20:26:00.777Z,63.45
2019-02-23T20:28:32.606Z,63.41
2019-02-23T20:31:03.916Z,63.23
2019-02-23T20:33:35.630Z,62.64
2019-02-23T20:36:06.971Z,62.36
2019-02-23T20:38:39.626Z,62.60
2019-02-23T20:41:10.975Z,62.78
2019-02-23T20:43:43.452Z,62.75
2019-02-23T20:46:16.234Z,62.81
2019-02-23T20:48:47.989Z,62.65
2019-02-23T20:51:19.451Z,62.55
2019-02-23T20:53:51.108Z,62.25
2019-02-23T20:56:22.442Z,62.63
2019-02-23T20:58:54.031Z,62.53
2019-02-23T21:01:25.553Z,62.21
2019-02-23T21:03:57.715Z,62.06
2019-02-23T21:06:29.061Z,62.24
2019-02-23T21:09:00.509Z,62.29
2019-02-23T21:11:33.695Z,62.39
2019-02-23T21:14:05.363Z,61.96
2019-02-23T21:16:36.815Z,62.21
2019-02-23T21:19:08.442Z,61.70
2019-02-23T21:21:40.148Z,61.05
2019-02-23T21:24:12.016Z,60.84
2019-02-23T21:26:43.647Z,60.03
2019-02-23T21:29:16.173Z,59.89
2019-02-23T21:31:48.884Z,59.62
2019-02-23T21:34:20.758Z,59.68
2019-02-23T21:36:52.088Z,59.34
2019-02-23T21:39:23.446Z,59.14
2019-02-23T21:41:54.994Z,59.35
2019-02-23T21:44:26.537Z,59.29
2019-02-23T21:46:58.121Z,58.72
2019-02-23T21:49:29.548Z,59.94
2019-02-23T21:52:01.010Z,60.11
2019-02-23T21:54:32.755Z,59.59
2019-02-23T21:57:04.301Z,59.79
2019-02-23T21:59:35.964Z,59.01
2019-02-23T22:02:07.716Z,58.33
2019-02-23T22:04:39.144Z,58.37
2019-02-23T22:07:10.925Z,58.54
2019-02-23T22:09:42.375Z,58.21
2019-02-23T22:12:14.885Z,58.16
2019-02-23T22:14:46.414Z,58.50
2019-02-23T22:17:18.057Z,58.60
2019-02-23T22:19:49.516Z,57.90
2019-02-23T22:22:22.300Z,58.60
2019-02-23T22:24:53.852Z,58.70
2019-02-23T22:27:31.095Z,58.43
2019-02-23T22:29:58.382Z,57.80
2019-02-23T22:32:30.063Z,58.17
2019-02-23T22:35:01.494Z,58.41
2019-02-23T22:37:33.604Z,58.01
2019-02-23T22:40:06.433Z,59.07
2019-02-23T22:42:37.578Z,58.87
2019-02-23T22:45:08.946Z,59.31
2019-02-23T22:47:40.377Z,59.14
2019-02-23T22:50:11.744Z,59.74
2019-02-23T22:52:43.686Z,59.84
2019-02-23T22:55:14.930Z,60.27
2019-02-23T22:57:46.583Z,60.27
2019-02-23T23:00:19.779Z,60.54
2019-02-23T23:02:54.206Z,60.76
2019-02-23T23:05:25.853Z,61.13
2019-02-23T23:07:57.195Z,60.98
2019-02-23T23:10:28.854Z,60.81
2019-02-23T23:13:00.205Z,61.58
2019-02-23T23:15:31.857Z,61.35
2019-02-23T23:18:03.207Z,61.83
2019-02-23T23:20:34.861Z,62.00
2019-02-23T23:23:06.306Z,61.55
2019-02-23T23:25:37.859Z,62.00
2019-02-23T23:28:09.106Z,61.84
2019-02-23T23:30:40.762Z,61.89
2019-02-23T23:33:12.208Z,62.12
2019-02-23T23:35:43.664Z,61.86
2019-02-23T23:38:14.914Z,61.84
2019-02-23T23:40:46.356Z,61.73
2019-02-23T23:43:17.705Z,61.60
2019-02-23T23:45:49.260Z,61.61
2019-02-23T23:48:20.706Z,61.57
2019-02-23T23:50:52.160Z,61.82
2019-02-23T23:53:23.654Z,61.28
2019-02-23T23:55:54.861Z,61.61
2019-02-23T23:58:26.097Z,62.11
